• Join FlightAware (Why Join?)
  • Login
  • US Flag 
11:16AM EDT


 

Airport Tracker/Info


-or-


 

Live Flight TrackerFlight Track Log ✈ LOF3424 ✈ 28-Jul-2013 ✈ KMEM - KORD

Flight Track Log - Related Links

Times and Time Zones

All times are in EDT time to prevent confusion due to time zone crossing. See the LOF3424 flight status page for this flight to view local times or setup timezone preferences in your user account.

Time Position Orientation Groundspeed Altitude Reporting Facility
EDT Latitude Longitude Course Direction KTS MPH feet Rate Location/Type
07:32PM 35.1333 -89.9833 348° North 238 274 3,300  Level KMEM
07:33PM 35.2000 -90.0000 348° North 253 291 5,900 2,400 Climbing KMEM
07:34PM 35.2667 -90.0167 348° North 262 302 8,100 2,040 Climbing KMEM
07:36PM 35.3825 -90.0233 357° North 288 331 10,900 1,560 Climbing Memphis Center
07:37PM 35.4533 -90.0283 357° North 288 331 12,000 1,320 Climbing Memphis Center
07:38PM 35.5431 -90.0331 358° North 302 348 13,600 1,560 Climbing Memphis Center
07:39PM 35.6286 -90.0378 357° North 307 353 15,200 1,620 Climbing Memphis Center
07:40PM 35.7203 -90.0475 355° North 306 352 16,900 1,500 Climbing Memphis Center
07:41PM 35.8081 -90.0653 351° North 306 352 18,300 1,080 Climbing Memphis Center
07:42PM 35.8831 -90.0856 348° North 306 352 19,100 960 Climbing Memphis Center
07:43PM 35.9686 -90.1133 345° North 306 352 20,300 1,140 Climbing Memphis Center
07:44PM 36.0561 -90.1414 345° North 318 366 21,400 1,200 Climbing Memphis Center
07:45PM 36.1458 -90.1667 347° North 318 366 22,700 1,260 Climbing Memphis Center
07:46PM 36.2356 -90.1950 346° North 323 372 24,000 1,260 Climbing Memphis Center
07:47PM 36.3253 -90.2256 345° North 323 372 25,300 1,200 Climbing Memphis Center
07:48PM 36.4128 -90.2511 347° North 323 372 26,500 1,140 Climbing Memphis Center
07:49PM 36.5025 -90.2794 346° North 318 366 27,600 1,080 Climbing Memphis Center
07:50PM 36.5922 -90.3053 347° North 318 366 28,700 1,020 Climbing Memphis Center
07:52PM 36.7900 -90.3625 347° North 333 383 31,000 960 Climbing Kansas City Center
07:53PM 36.8814 -90.3903 346° North 334 384 32,000 480 Climbing Kansas City Center
07:54PM 36.9956 -90.4264 346° North 349 402 32,000  Level Kansas City Center
07:55PM 37.0994 -90.4592 346° North 372 428 32,000  Level Kansas City Center
07:56PM 37.2044 -90.4917 346° North 384 442 32,000  Level Kansas City Center
07:57PM 37.3111 -90.5242 346° North 391 450 32,000  Level Kansas City Center
07:58PM 37.4181 -90.5589 346° North 390 449 32,000  Level Kansas City Center
07:59PM 37.5231 -90.5917 346° North 389 448 32,000  Level Kansas City Center
08:00PM 37.6286 -90.6264 345° North 390 449 32,000  Level Kansas City Center
08:01PM 37.7336 -90.6603 346° North 390 449 32,000  Level Kansas City Center
08:02PM 37.8372 -90.6939 346° North 385 443 32,000  Level Kansas City Center
08:03PM 37.9389 -90.7261 346° North 379 436 32,000  Level Kansas City Center
08:04PM 38.0628 -90.7669 345° North 381 438 32,000  Level Kansas City Center
08:05PM 38.1644 -90.7992 346° North 378 435 32,000  Level Kansas City Center
08:06PM 38.2661 -90.8328 345° North 376 433 32,000  Level Kansas City Center
08:07PM 38.3681 -90.8653 346° North 376 433 32,000  Level Kansas City Center
08:09PM 38.4692 -90.8989 345° North 374 430 32,000  Level Kansas City Center
08:10PM 38.5708 -90.9322 346° North 374 430 32,000  Level Kansas City Center
08:11PM 38.6728 -90.9647 346° North 376 433 32,000 -180 Level Kansas City Center
08:12PM 38.7819 -90.9239 16° North 415 478 31,700 -420 Descending Kansas City Center
08:13PM 38.8931 -90.8658 22° Northeast 427 491 31,200 -360 Descending Kansas City Center
08:14PM 39.0044 -90.8075 22° Northeast 429 494 31,000 -120 Descending Kansas City Center
08:15PM 39.1317 -90.8278 353° North 389 448 31,000  Level Kansas City Center
08:16PM 39.2336 -90.8564 348° North 377 434 31,000  Level Kansas City Center
08:17PM 39.3378 -90.8825 349° North 379 436 31,000  Level Kansas City Center
08:18PM 39.4422 -90.9122 348° North 382 440 31,000  Level Kansas City Center
08:19PM 39.5303 -90.9764 331° Northwest 368 423 31,000  Level Kansas City Center
08:20PM 39.6089 -91.0581 321° Northwest 363 418 31,000  Level Kansas City Center
08:21PM 39.7178 -91.0567 North 394 453 31,000  Level Kansas City Center
08:22PM 39.8358 -90.9431 36° Northeast 439 505 31,000  Level Kansas City Center
08:23PM 39.9361 -90.8428 37° Northeast 451 519 31,000  Level Kansas City Center
08:24PM 40.0364 -90.7422 38° Northeast 454 522 31,000  Level Kansas City Center
08:25PM 40.1353 -90.6431 37° Northeast 449 517 31,000  Level Kansas City Center
08:26PM 40.2336 -90.5444 37° Northeast 447 514 31,000  Level Kansas City Center
08:27PM 40.3272 -90.4494 38° Northeast 432 497 31,000  Level Kansas City Center
08:28PM 40.4208 -90.3519 38° Northeast 428 493 31,000 -120 Level Kansas City Center
08:29PM 40.5156 -90.2567 37° Northeast 428 493 30,800 -1,200 Descending Kansas City Center
08:30PM 40.6239 -90.1453 38° Northeast 435 501 28,600 -2,040 Descending Kansas City Center
08:31PM 40.7194 -90.0478 38° Northeast 438 504 26,700 -1,620 Descending Kansas City Center
08:32PM 40.8072 -89.9575 38° Northeast 433 498 25,400 -1,200 Descending Kansas City Center
08:33PM 40.9456 -89.8133 38° Northeast 444 511 24,000 -660 Descending Chicago Center
08:34PM 41.0397 -89.7139 39° Northeast 435 501 24,000 -60 Level Chicago Center
08:35PM 41.1328 -89.6169 38° Northeast 428 493 23,900 -720 Descending Chicago Center
08:37PM 41.2028 -89.4819 55° Northeast 444 511 22,600 -1,620 Descending Chicago Center
08:38PM 41.2619 -89.3361 62° Northeast 448 516 20,600 -2,640 Descending Chicago Center
08:39PM 41.3189 -89.1944 62° Northeast 438 504 17,200 -3,300 Descending Chicago Center
08:40PM 41.3822 -89.0358 62° Northeast 406 467 13,800 -2,820 Descending Chicago Center
08:41PM 41.4319 -88.9097 62° Northeast 388 447 11,400 -1,440 Descending Chicago Center
08:42PM 41.4794 -88.7856 63° Northeast 380 437 10,900 -300 Descending Chicago Center
08:43PM 41.5275 -88.6631 62° Northeast 374 430 10,900  Level Chicago Center
08:44PM 41.5767 -88.5419 61° Northeast 374 430 11,000  Climbing Chicago Center
08:45PM 41.6294 -88.4228 59° Northeast 373 429 10,900 -60 Descending Chicago Center
08:46PM 41.7033 -88.3014 51° Northeast 353 406 10,900 -600 Level Chicago Center
08:47PM 41.7531 -88.2167 52° Northeast 294 338 9,700 -1,260 Descending Chicago Center
08:48PM 41.8031 -88.1306 52° Northeast 295 339 8,300 -1,320 Descending Chicago Center
08:49PM 41.8303 -88.0356 69° East 279 321 7,000 -660 Descending Chicago Center
08:50PM 41.8569 -87.9217 73° East 275 316 7,000 -60 Level Chicago Center
08:51PM 41.8778 -87.8228 74° East 276 318 6,900 -600 Descending Chicago Center
08:52PM 41.8831 -87.7406 85° East 253 291 5,800 -660 Descending Chicago Center
08:53PM 41.8867 -87.6619 86° East 247 284 5,600 -1,140 Descending Chicago Center
08:55PM 41.9667 -87.8000 308° West 142 163 2,100 -1,260 Descending Chicago TRACON
08:56PM 41.9667 -87.8500 270° West 125 144 1,300 -780 Descending Chicago TRACON